sensor_id;sensor_type;location;lat;lon;timestamp;pressure;altitude;pressure_sealevel;temperature;humidity
56558;BME280;43358;50.356;12.456;2022-11-15T00:27:23;95603;;;1.6;98.8
56558;BME280;43358;50.356;12.456;2022-11-15T00:27:23;95606;;;1.6;98.8
56558;BME280;43358;50.356;12.456;2022-11-15T00:28:11;95594;;;1.6;98.8
56558;BME280;43358;50.356;12.456;2022-11-15T00:29:10;95597;;;1.6;98.8
56558;BME280;43358;50.356;12.456;2022-11-15T00:30:10;95593;;;1.6;98.8
56558;BME280;43358;50.356;12.456;2022-11-15T00:31:11;95593;;;1.6;98.8
56558;BME280;43358;50.356;12.456;2022-11-15T00:32:10;95591;;;1.6;98.8
56558;BME280;43358;50.356;12.456;2022-11-15T00:33:10;95586;;;1.6;98.8
56558;BME280;43358;50.356;12.456;2022-11-15T00:34:10;95586;;;1.6;98.8
56558;BME280;43358;50.356;12.456;2022-11-15T00:35:10;95585;;;1.6;98.8
56558;BME280;43358;50.356;12.456;2022-11-15T00:36:10;95583;;;1.6;98.8
56558;BME280;43358;50.356;12.456;2022-11-15T00:37:10;95584;;;1.6;98.8
56558;BME280;43358;50.356;12.456;2022-11-15T00:38:10;95587;;;1.7;98.8
56558;BME280;43358;50.356;12.456;2022-11-15T00:39:12;95587;;;1.7;98.8
56558;BME280;43358;50.356;12.456;2022-11-15T00:40:15;95583;;;1.7;98.8
56558;BME280;43358;50.356;12.456;2022-11-15T00:41:18;95586;;;1.7;98.8
56558;BME280;43358;50.356;12.456;2022-11-15T00:42:20;95588;;;1.7;98.8
56558;BME280;43358;50.356;12.456;2022-11-15T00:43:22;95585;;;1.7;98.8
56558;BME280;43358;50.356;12.456;2022-11-15T00:44:24;95589;;;1.7;98.8
56558;BME280;43358;50.356;12.456;2022-11-15T00:45:26;95590;;;1.7;98.8
56558;BME280;43358;50.356;12.456;2022-11-15T00:46:28;95590;;;1.7;98.8
56558;BME280;43358;50.356;12.456;2022-11-15T00:47:30;95588;;;1.8;98.8
56558;BME280;43358;50.356;12.456;2022-11-15T00:48:32;95587;;;1.8;98.8
56558;BME280;43358;50.356;12.456;2022-11-15T00:49:34;95583;;;1.8;98.8
56558;BME280;43358;50.356;12.456;2022-11-15T00:50:36;95575;;;1.8;98.8
56558;BME280;43358;50.356;12.456;2022-11-15T00:51:38;95572;;;1.8;98.8
56558;BME280;43358;50.356;12.456;2022-11-15T00:52:40;95573;;;1.8;98.8
56558;BME280;43358;50.356;12.456;2022-11-15T00:53:42;95571;;;1.8;98.8
56558;BME280;43358;50.356;12.456;2022-11-15T00:54:45;95569;;;1.8;98.8
56558;BME280;43358;50.356;12.456;2022-11-15T00:55:47;95566;;;1.8;98.8
56558;BME280;43358;50.356;12.456;2022-11-15T00:56:49;95568;;;1.8;98.8
56558;BME280;43358;50.356;12.456;2022-11-15T00:57:51;95563;;;1.8;98.8
56558;BME280;43358;50.356;12.456;2022-11-15T00:58:53;95563;;;1.8;98.8
56558;BME280;43358;50.356;12.456;2022-11-15T00:59:55;95563;;;1.9;98.8
56558;BME280;43358;50.356;12.456;2022-11-15T01:01:04;95561;;;1.9;98.8
56558;BME280;43358;50.356;12.456;2022-11-15T01:01:59;95559;;;1.9;98.8
56558;BME280;43358;50.356;12.456;2022-11-15T01:03:01;95556;;;1.9;98.8
56558;BME280;43358;50.356;12.456;2022-11-15T01:04:03;95556;;;1.9;98.8
56558;BME280;43358;50.356;12.456;2022-11-15T01:05:06;95553;;;1.9;98.8
56558;BME280;43358;50.356;12.456;2022-11-15T01:06:08;95555;;;1.9;98.8
56558;BME280;43358;50.356;12.456;2022-11-15T01:07:10;95555;;;1.9;98.8
56558;BME280;43358;50.356;12.456;2022-11-15T01:08:12;95556;;;1.9;98.8
56558;BME280;43358;50.356;12.456;2022-11-15T01:09:15;95560;;;2;98.8
56558;BME280;43358;50.356;12.456;2022-11-15T01:10:19;95559;;;1.9;98.8
56558;BME280;43358;50.356;12.456;2022-11-15T01:11:21;95559;;;1.9;98.8
56558;BME280;43358;50.356;12.456;2022-11-15T01:12:23;95559;;;2;98.8
56558;BME280;43358;50.356;12.456;2022-11-15T01:13:25;95557;;;2;98.8
56558;BME280;43358;50.356;12.456;2022-11-15T01:14:27;95562;;;2;98.8
56558;BME280;43358;50.356;12.456;2022-11-15T01:15:29;95556;;;2;98.8
56558;BME280;43358;50.356;12.456;2022-11-15T01:16:31;95556;;;2;98.8
56558;BME280;43358;50.356;12.456;2022-11-15T01:17:33;95559;;;2;98.8
56558;BME280;43358;50.356;12.456;2022-11-15T01:18:35;95559;;;2;98.8
56558;BME280;43358;50.356;12.456;2022-11-15T01:19:37;95560;;;2;98.8
56558;BME280;43358;50.356;12.456;2022-11-15T01:20:39;95558;;;2;98.8
56558;BME280;43358;50.356;12.456;2022-11-15T01:21:41;95560;;;2.1;98.8
56558;BME280;43358;50.356;12.456;2022-11-15T01:22:43;95558;;;2.1;98.8
56558;BME280;43358;50.356;12.456;2022-11-15T01:23:45;95553;;;2.1;98.8
56558;BME280;43358;50.356;12.456;2022-11-15T01:24:48;95551;;;2.1;98.8
56558;BME280;43358;50.356;12.456;2022-11-15T01:25:49;95555;;;2.1;98.8
56558;BME280;43358;50.356;12.456;2022-11-15T01:26:51;95559;;;2.1;98.8
56558;BME280;43358;50.356;12.456;2022-11-15T01:27:53;95561;;;2.1;98.8
56558;BME280;43358;50.356;12.456;2022-11-15T01:28:55;95561;;;2.1;98.8
56558;BME280;43358;50.356;12.456;2022-11-15T01:29:57;95559;;;2.1;98.8
56558;BME280;43358;50.356;12.456;2022-11-15T01:30:59;95558;;;2.1;98.8
56558;BME280;43358;50.356;12.456;2022-11-15T01:32:01;95558;;;2.1;98.8
56558;BME280;43358;50.356;12.456;2022-11-15T01:33:03;95557;;;2.1;98.8
56558;BME280;43358;50.356;12.456;2022-11-15T01:34:05;95555;;;2.1;98.8
56558;BME280;43358;50.356;12.456;2022-11-15T01:35:07;95555;;;2.1;98.8
56558;BME280;43358;50.356;12.456;2022-11-15T01:36:10;95551;;;2.1;98.8
56558;BME280;43358;50.356;12.456;2022-11-15T01:37:11;95548;;;2.1;98.8
56558;BME280;43358;50.356;12.456;2022-11-15T01:38:13;95548;;;2.1;98.8
56558;BME280;43358;50.356;12.456;2022-11-15T01:39:15;95549;;;2.2;98.8
56558;BME280;43358;50.356;12.456;2022-11-15T01:40:19;95553;;;2.2;98.8
56558;BME280;43358;50.356;12.456;2022-11-15T01:41:22;95558;;;2.2;98.8
56558;BME280;43358;50.356;12.456;2022-11-15T01:42:23;95553;;;2.2;98.8
56558;BME280;43358;50.356;12.456;2022-11-15T01:43:26;95553;;;2.2;98.8
56558;BME280;43358;50.356;12.456;2022-11-15T01:44:38;95551;;;2.2;98.8
56558;BME280;43358;50.356;12.456;2022-11-15T01:45:30;95552;;;2.2;98.8
56558;BME280;43358;50.356;12.456;2022-11-15T01:46:33;95549;;;2.2;98.8
56558;BME280;43358;50.356;12.456;2022-11-15T01:47:35;95549;;;2.2;98.8
56558;BME280;43358;50.356;12.456;2022-11-15T01:48:36;95550;;;2.2;98.8
56558;BME280;43358;50.356;12.456;2022-11-15T01:49:39;95550;;;2.2;98.8
56558;BME280;43358;50.356;12.456;2022-11-15T01:50:41;95549;;;2.2;98.8
56558;BME280;43358;50.356;12.456;2022-11-15T01:51:43;95548;;;2.2;98.8
56558;BME280;43358;50.356;12.456;2022-11-15T01:52:45;95550;;;2.2;98.8
56558;BME280;43358;50.356;12.456;2022-11-15T01:53:48;95550;;;2.2;98.8
56558;BME280;43358;50.356;12.456;2022-11-15T01:54:51;95548;;;2.2;98.8
56558;BME280;43358;50.356;12.456;2022-11-15T01:55:51;95550;;;2.2;98.8
56558;BME280;43358;50.356;12.456;2022-11-15T01:56:54;95551;;;2.2;98.8
56558;BME280;43358;50.356;12.456;2022-11-15T01:57:57;95548;;;2.2;98.8
56558;BME280;43358;50.356;12.456;2022-11-15T01:58:58;95550;;;2.2;98.8
56558;BME280;43358;50.356;12.456;2022-11-15T01:59:59;95550;;;2.2;98.8
56558;BME280;43358;50.356;12.456;2022-11-15T02:01:01;95549;;;2.2;98.8
56558;BME280;43358;50.356;12.456;2022-11-15T02:02:04;95551;;;2.2;98.8
56558;BME280;43358;50.356;12.456;2022-11-15T02:03:06;95553;;;2.2;98.8
56558;BME280;43358;50.356;12.456;2022-11-15T02:04:10;95548;;;2.2;98.8
56558;BME280;43358;50.356;12.456;2022-11-15T02:05:10;95551;;;2.2;98.8
56558;BME280;43358;50.356;12.456;2022-11-15T02:06:12;95552;;;2.2;98.8
56558;BME280;43358;50.356;12.456;2022-11-15T02:07:16;95549;;;2.2;98.8
56558;BME280;43358;50.356;12.456;2022-11-15T02:08:18;95544;;;2.2;98.8
56558;BME280;43358;50.356;12.456;2022-11-15T02:09:20;95550;;;2.2;98.8
56558;BME280;43358;50.356;12.456;2022-11-15T02:10:22;95550;;;2.2;98.8
56558;BME280;43358;50.356;12.456;2022-11-15T02:11:24;95549;;;2.2;98.8
56558;BME280;43358;50.356;12.456;2022-11-15T02:12:27;95551;;;2.3;98.8
56558;BME280;43358;50.356;12.456;2022-11-15T02:13:29;95551;;;2.3;98.8
56558;BME280;43358;50.356;12.456;2022-11-15T02:14:31;95550;;;2.3;98.8
56558;BME280;43358;50.356;12.456;2022-11-15T02:15:35;95548;;;2.3;98.8
56558;BME280;43358;50.356;12.456;2022-11-15T02:16:38;95547;;;2.3;98.8
56558;BME280;43358;50.356;12.456;2022-11-15T02:17:42;95546;;;2.3;98.8
56558;BME280;43358;50.356;12.456;2022-11-15T02:18:41;95545;;;2.3;98.8
56558;BME280;43358;50.356;12.456;2022-11-15T02:19:49;95542;;;2.3;98.8
56558;BME280;43358;50.356;12.456;2022-11-15T02:20:46;95540;;;2.3;98.8
56558;BME280;43358;50.356;12.456;2022-11-15T02:21:46;95537;;;2.3;98.8
56558;BME280;43358;50.356;12.456;2022-11-15T02:22:51;95535;;;2.2;98.8
56558;BME280;43358;50.356;12.456;2022-11-15T02:24:00;95541;;;2.3;98.8
56558;BME280;43358;50.356;12.456;2022-11-15T02:25:30;95539;;;2.3;98.8
56558;BME280;43358;50.356;12.456;2022-11-15T02:25:56;95540;;;2.3;98.8
56558;BME280;43358;50.356;12.456;2022-11-15T02:27:02;95542;;;2.3;98.8
56558;BME280;43358;50.356;12.456;2022-11-15T02:29:01;95539;;;2.3;98.8
56558;BME280;43358;50.356;12.456;2022-11-15T02:29:03;95541;;;2.3;98.8
56558;BME280;43358;50.356;12.456;2022-11-15T02:31:03;95537;;;2.3;98.8
56558;BME280;43358;50.356;12.456;2022-11-15T02:31:05;95538;;;2.3;98.8
56558;BME280;43358;50.356;12.456;2022-11-15T02:32:06;95539;;;2.3;98.8
56558;BME280;43358;50.356;12.456;2022-11-15T02:33:09;95535;;;2.3;98.8
56558;BME280;43358;50.356;12.456;2022-11-15T02:34:11;95533;;;2.3;98.8
56558;BME280;43358;50.356;12.456;2022-11-15T02:35:12;95529;;;2.3;98.8
56558;BME280;43358;50.356;12.456;2022-11-15T02:36:14;95530;;;2.3;98.8
56558;BME280;43358;50.356;12.456;2022-11-15T02:37:20;95529;;;2.3;98.8
56558;BME280;43358;50.356;12.456;2022-11-15T02:38:21;95527;;;2.3;98.8
56558;BME280;43358;50.356;12.456;2022-11-15T02:39:23;95529;;;2.3;98.8
56558;BME280;43358;50.356;12.456;2022-11-15T02:40:26;95527;;;2.3;98.8
56558;BME280;43358;50.356;12.456;2022-11-15T02:41:27;95524;;;2.3;98.8
56558;BME280;43358;50.356;12.456;2022-11-15T02:42:28;95518;;;2.3;98.8
56558;BME280;43358;50.356;12.456;2022-11-15T02:43:31;95520;;;2.3;98.8
56558;BME280;43358;50.356;12.456;2022-11-15T02:44:32;95520;;;2.3;98.8
56558;BME280;43358;50.356;12.456;2022-11-15T02:45:35;95520;;;2.3;98.8
56558;BME280;43358;50.356;12.456;2022-11-15T02:46:37;95522;;;2.3;98.8
56558;BME280;43358;50.356;12.456;2022-11-15T02:47:40;95520;;;2.3;98.8
56558;BME280;43358;50.356;12.456;2022-11-15T02:48:40;95517;;;2.3;98.8
56558;BME280;43358;50.356;12.456;2022-11-15T02:49:43;95515;;;2.3;98.8
56558;BME280;43358;50.356;12.456;2022-11-15T02:50:44;95512;;;2.3;98.8
56558;BME280;43358;50.356;12.456;2022-11-15T02:51:47;95513;;;2.3;98.8
56558;BME280;43358;50.356;12.456;2022-11-15T02:52:48;95510;;;2.3;98.8
56558;BME280;43358;50.356;12.456;2022-11-15T02:53:50;95516;;;2.3;98.8
56558;BME280;43358;50.356;12.456;2022-11-15T02:54:53;95508;;;2.3;98.8
56558;BME280;43358;50.356;12.456;2022-11-15T02:55:56;95511;;;2.3;98.8
56558;BME280;43358;50.356;12.456;2022-11-15T02:56:59;95509;;;2.3;98.8
56558;BME280;43358;50.356;12.456;2022-11-15T02:59:07;95505;;;2.3;98.8
56558;BME280;43358;50.356;12.456;2022-11-15T03:00:05;95507;;;2.2;98.8
56558;BME280;43358;50.356;12.456;2022-11-15T03:01:08;95507;;;2.2;98.8
56558;BME280;43358;50.356;12.456;2022-11-15T03:02:13;95505;;;2.2;98.8
56558;BME280;43358;50.356;12.456;2022-11-15T03:03:15;95509;;;2.2;98.8
56558;BME280;43358;50.356;12.456;2022-11-15T03:04:16;95510;;;2.2;98.8
56558;BME280;43358;50.356;12.456;2022-11-15T03:05:18;95505;;;2.2;98.8
56558;BME280;43358;50.356;12.456;2022-11-15T03:06:20;95508;;;2.2;98.8
56558;BME280;43358;50.356;12.456;2022-11-15T03:07:22;95506;;;2.2;98.8
56558;BME280;43358;50.356;12.456;2022-11-15T03:08:25;95506;;;2.2;98.8
56558;BME280;43358;50.356;12.456;2022-11-15T03:09:28;95500;;;2.2;98.8
56558;BME280;43358;50.356;12.456;2022-11-15T03:10:29;95500;;;2.2;98.8
56558;BME280;43358;50.356;12.456;2022-11-15T03:11:28;95498;;;2.2;98.8
56558;BME280;43358;50.356;12.456;2022-11-15T03:12:33;95496;;;2.2;98.8
56558;BME280;43358;50.356;12.456;2022-11-15T03:13:33;95491;;;2.2;98.8
56558;BME280;43358;50.356;12.456;2022-11-15T03:14:35;95494;;;2.2;98.8
56558;BME280;43358;50.356;12.456;2022-11-15T03:15:37;95493;;;2.2;98.8
56558;BME280;43358;50.356;12.456;2022-11-15T03:16:40;95492;;;2.2;98.8
56558;BME280;43358;50.356;12.456;2022-11-15T03:17:41;95490;;;2.1;98.8
56558;BME280;43358;50.356;12.456;2022-11-15T03:18:43;95490;;;2.2;98.8
56558;BME280;43358;50.356;12.456;2022-11-15T03:19:45;95491;;;2.2;98.8
56558;BME280;43358;50.356;12.456;2022-11-15T03:20:46;95488;;;2.2;98.8
56558;BME280;43358;50.356;12.456;2022-11-15T03:21:48;95491;;;2.2;98.8
56558;BME280;43358;50.356;12.456;2022-11-15T03:22:50;95489;;;2.2;98.8
56558;BME280;43358;50.356;12.456;2022-11-15T03:23:52;95493;;;2.3;98.8
56558;BME280;43358;50.356;12.456;2022-11-15T03:24:57;95485;;;2.3;98.8
56558;BME280;43358;50.356;12.456;2022-11-15T03:25:57;95487;;;2.3;98.8
56558;BME280;43358;50.356;12.456;2022-11-15T03:26:59;95482;;;2.3;98.8
56558;BME280;43358;50.356;12.456;2022-11-15T03:28:02;95478;;;2.3;98.8
56558;BME280;43358;50.356;12.456;2022-11-15T03:29:04;95479;;;2.3;98.8
56558;BME280;43358;50.356;12.456;2022-11-15T03:30:06;95480;;;2.2;98.8
56558;BME280;43358;50.356;12.456;2022-11-15T03:31:07;95477;;;2.2;98.8
56558;BME280;43358;50.356;12.456;2022-11-15T03:32:11;95478;;;2.2;98.8
56558;BME280;43358;50.356;12.456;2022-11-15T03:33:11;95479;;;2.2;98.8
56558;BME280;43358;50.356;12.456;2022-11-15T03:34:19;95477;;;2.2;98.8
56558;BME280;43358;50.356;12.456;2022-11-15T03:35:19;95479;;;2.1;98.8
56558;BME280;43358;50.356;12.456;2022-11-15T03:36:21;95485;;;2.1;98.8
56558;BME280;43358;50.356;12.456;2022-11-15T03:37:24;95480;;;2.1;98.8
56558;BME280;43358;50.356;12.456;2022-11-15T03:38:25;95482;;;2.2;98.8
56558;BME280;43358;50.356;12.456;2022-11-15T03:39:26;95475;;;2.2;98.8
56558;BME280;43358;50.356;12.456;2022-11-15T03:40:29;95474;;;2.2;98.8
56558;BME280;43358;50.356;12.456;2022-11-15T03:41:33;95467;;;2.2;98.8
56558;BME280;43358;50.356;12.456;2022-11-15T03:42:34;95467;;;2.2;98.8
56558;BME280;43358;50.356;12.456;2022-11-15T03:44:31;95469;;;2.1;98.8
56558;BME280;43358;50.356;12.456;2022-11-15T03:44:39;95468;;;2.2;98.8
56558;BME280;43358;50.356;12.456;2022-11-15T03:45:39;95471;;;2.2;98.8
56558;BME280;43358;50.356;12.456;2022-11-15T03:46:42;95469;;;2.1;98.8
56558;BME280;43358;50.356;12.456;2022-11-15T03:48:12;95469;;;2.1;98.8
56558;BME280;43358;50.356;12.456;2022-11-15T03:51:07;95468;;;2;98.8
56558;BME280;43358;50.356;12.456;2022-11-15T03:52:10;95469;;;2;98.8
56558;BME280;43358;50.356;12.456;2022-11-15T03:56:10;95469;;;1.9;98.8
56558;BME280;43358;50.356;12.456;2022-11-15T03:57:10;95469;;;1.9;98.8
56558;BME280;43358;50.356;12.456;2022-11-15T03:58:10;95465;;;1.9;98.8
56558;BME280;43358;50.356;12.456;2022-11-15T03:59:10;95468;;;1.9;98.8
56558;BME280;43358;50.356;12.456;2022-11-15T04:00:11;95469;;;1.9;98.8
56558;BME280;43358;50.356;12.456;2022-11-15T04:01:10;95472;;;1.8;98.8
56558;BME280;43358;50.356;12.456;2022-11-15T04:02:11;95473;;;1.8;98.8
56558;BME280;43358;50.356;12.456;2022-11-15T04:03:10;95473;;;1.9;98.8
56558;BME280;43358;50.356;12.456;2022-11-15T04:04:10;95469;;;1.9;98.8
56558;BME280;43358;50.356;12.456;2022-11-15T04:05:10;95473;;;1.9;98.8
56558;BME280;43358;50.356;12.456;2022-11-15T04:06:10;95470;;;1.9;98.8
56558;BME280;43358;50.356;12.456;2022-11-15T04:07:10;95470;;;1.8;98.8
56558;BME280;43358;50.356;12.456;2022-11-15T04:08:10;95468;;;1.8;98.8
56558;BME280;43358;50.356;12.456;2022-11-15T04:09:11;95467;;;1.8;98.8
56558;BME280;43358;50.356;12.456;2022-11-15T04:10:48;95464;;;1.8;98.8
56558;BME280;43358;50.356;12.456;2022-11-15T04:13:51;95467;;;1.8;98.8
56558;BME280;43358;50.356;12.456;2022-11-15T04:14:54;95464;;;1.8;98.8
56558;BME280;43358;50.356;12.456;2022-11-15T04:16:59;95469;;;1.7;98.8
56558;BME280;43358;50.356;12.456;2022-11-15T04:18:01;95467;;;1.7;98.8
56558;BME280;43358;50.356;12.456;2022-11-15T04:19:03;95465;;;1.7;98.8
56558;BME280;43358;50.356;12.456;2022-11-15T04:21:22;95463;;;1.7;98.8
56558;BME280;43358;50.356;12.456;2022-11-15T04:22:10;95464;;;1.7;98.8
56558;BME280;43358;50.356;12.456;2022-11-15T04:23:12;95464;;;1.7;98.8
56558;BME280;43358;50.356;12.456;2022-11-15T04:25:15;95464;;;1.6;98.8
56558;BME280;43358;50.356;12.456;2022-11-15T04:26:18;95460;;;1.6;98.8
56558;BME280;43358;50.356;12.456;2022-11-15T04:27:19;95458;;;1.6;98.8
56558;BME280;43358;50.356;12.456;2022-11-15T04:28:22;95459;;;1.6;98.8
56558;BME280;43358;50.356;12.456;2022-11-15T04:29:23;95458;;;1.6;98.8
56558;BME280;43358;50.356;12.456;2022-11-15T04:30:25;95455;;;1.6;98.8
56558;BME280;43358;50.356;12.456;2022-11-15T04:31:28;95455;;;1.6;98.8
56558;BME280;43358;50.356;12.456;2022-11-15T04:32:30;95453;;;1.6;98.8
56558;BME280;43358;50.356;12.456;2022-11-15T04:33:32;95454;;;1.6;98.8
56558;BME280;43358;50.356;12.456;2022-11-15T04:34:34;95450;;;1.6;98.8
56558;BME280;43358;50.356;12.456;2022-11-15T04:35:37;95454;;;1.6;98.8
56558;BME280;43358;50.356;12.456;2022-11-15T04:36:39;95454;;;1.6;98.8
56558;BME280;43358;50.356;12.456;2022-11-15T04:37:42;95454;;;1.6;98.8
56558;BME280;43358;50.356;12.456;2022-11-15T04:38:44;95452;;;1.5;98.8
56558;BME280;43358;50.356;12.456;2022-11-15T04:39:46;95453;;;1.5;98.8
56558;BME280;43358;50.356;12.456;2022-11-15T04:40:48;95454;;;1.5;98.8
56558;BME280;43358;50.356;12.456;2022-11-15T04:41:51;95456;;;1.4;98.8
56558;BME280;43358;50.356;12.456;2022-11-15T04:42:52;95456;;;1.5;98.8
56558;BME280;43358;50.356;12.456;2022-11-15T04:43:54;95456;;;1.5;98.8
56558;BME280;43358;50.356;12.456;2022-11-15T04:44:56;95451;;;1.5;98.8
56558;BME280;43358;50.356;12.456;2022-11-15T04:45:58;95450;;;1.5;98.8
56558;BME280;43358;50.356;12.456;2022-11-15T04:47:01;95447;;;1.5;98.8
56558;BME280;43358;50.356;12.456;2022-11-15T04:48:03;95445;;;1.5;98.8
56558;BME280;43358;50.356;12.456;2022-11-15T04:49:05;95442;;;1.4;98.8
56558;BME280;43358;50.356;12.456;2022-11-15T04:50:07;95442;;;1.4;98.8
56558;BME280;43358;50.356;12.456;2022-11-15T04:51:08;95439;;;1.4;98.8
56558;BME280;43358;50.356;12.456;2022-11-15T04:55:03;95439;;;1.5;98.8
56558;BME280;43358;50.356;12.456;2022-11-15T04:55:03;95437;;;1.5;98.8
56558;BME280;43358;50.356;12.456;2022-11-15T04:55:19;95436;;;1.5;98.8
56558;BME280;43358;50.356;12.456;2022-11-15T04:56:20;95437;;;1.5;98.8
56558;BME280;43358;50.356;12.456;2022-11-15T04:57:22;95436;;;1.4;98.8
56558;BME280;43358;50.356;12.456;2022-11-15T04:58:25;95437;;;1.4;98.8
56558;BME280;43358;50.356;12.456;2022-11-15T04:59:28;95440;;;1.4;98.8
56558;BME280;43358;50.356;12.456;2022-11-15T05:00:30;95439;;;1.4;98.8
56558;BME280;43358;50.356;12.456;2022-11-15T05:01:31;95442;;;1.3;98.8
56558;BME280;43358;50.356;12.456;2022-11-15T05:02:33;95444;;;1.3;98.8
56558;BME280;43358;50.356;12.456;2022-11-15T05:03:36;95444;;;1.3;98.8
56558;BME280;43358;50.356;12.456;2022-11-15T05:04:38;95441;;;1.3;98.8
56558;BME280;43358;50.356;12.456;2022-11-15T05:05:40;95443;;;1.3;98.8
56558;BME280;43358;50.356;12.456;2022-11-15T05:06:42;95441;;;1.3;98.8
56558;BME280;43358;50.356;12.456;2022-11-15T05:07:44;95442;;;1.3;98.8
56558;BME280;43358;50.356;12.456;2022-11-15T05:08:46;95440;;;1.3;98.8
56558;BME280;43358;50.356;12.456;2022-11-15T05:09:48;95439;;;1.3;98.8
56558;BME280;43358;50.356;12.456;2022-11-15T05:10:50;95438;;;1.3;98.8
56558;BME280;43358;50.356;12.456;2022-11-15T05:11:52;95432;;;1.3;98.8
56558;BME280;43358;50.356;12.456;2022-11-15T05:12:54;95435;;;1.3;98.8
56558;BME280;43358;50.356;12.456;2022-11-15T05:13:56;95438;;;1.2;98.8
56558;BME280;43358;50.356;12.456;2022-11-15T05:14:58;95434;;;1.2;98.8
56558;BME280;43358;50.356;12.456;2022-11-15T05:16:00;95437;;;1.2;98.8
56558;BME280;43358;50.356;12.456;2022-11-15T05:17:02;95440;;;1.2;98.8
56558;BME280;43358;50.356;12.456;2022-11-15T05:18:04;95443;;;1.2;98.8
56558;BME280;43358;50.356;12.456;2022-11-15T05:19:06;95442;;;1.2;98.8
56558;BME280;43358;50.356;12.456;2022-11-15T05:20:08;95439;;;1.2;98.8
56558;BME280;43358;50.356;12.456;2022-11-15T05:21:10;95438;;;1.2;98.8
56558;BME280;43358;50.356;12.456;2022-11-15T05:22:12;95438;;;1.2;98.8
56558;BME280;43358;50.356;12.456;2022-11-15T05:23:14;95434;;;1.2;98.8
56558;BME280;43358;50.356;12.456;2022-11-15T05:25:18;95433;;;1.2;98.8
56558;BME280;43358;50.356;12.456;2022-11-15T05:27:10;95430;;;1.2;98.8
56558;BME280;43358;50.356;12.456;2022-11-15T05:28:10;95428;;;1.2;98.8
56558;BME280;43358;50.356;12.456;2022-11-15T05:29:10;95427;;;1.2;98.8
56558;BME280;43358;50.356;12.456;2022-11-15T05:30:10;95424;;;1.2;98.8
56558;BME280;43358;50.356;12.456;2022-11-15T05:31:11;95422;;;1.2;98.8
56558;BME280;43358;50.356;12.456;2022-11-15T05:32:10;95424;;;1.2;98.8
56558;BME280;43358;50.356;12.456;2022-11-15T05:33:10;95424;;;1.2;98.8
56558;BME280;43358;50.356;12.456;2022-11-15T05:34:10;95423;;;1.2;98.8
56558;BME280;43358;50.356;12.456;2022-11-15T05:35:12;95421;;;1.2;98.8
56558;BME280;43358;50.356;12.456;2022-11-15T05:36:12;95419;;;1.2;98.8
56558;BME280;43358;50.356;12.456;2022-11-15T05:37:10;95421;;;1.2;98.8
56558;BME280;43358;50.356;12.456;2022-11-15T05:38:10;95420;;;1.2;98.8
56558;BME280;43358;50.356;12.456;2022-11-15T05:39:10;95424;;;1.2;98.8
56558;BME280;43358;50.356;12.456;2022-11-15T05:40:10;95422;;;1.2;98.8
56558;BME280;43358;50.356;12.456;2022-11-15T05:41:10;95420;;;1.2;98.8
56558;BME280;43358;50.356;12.456;2022-11-15T05:42:11;95420;;;1.1;98.8
56558;BME280;43358;50.356;12.456;2022-11-15T05:43:10;95421;;;1.1;98.8
56558;BME280;43358;50.356;12.456;2022-11-15T05:44:12;95420;;;1.1;98.8
56558;BME280;43358;50.356;12.456;2022-11-15T05:45:10;95421;;;1.1;98.8
56558;BME280;43358;50.356;12.456;2022-11-15T05:46:11;95421;;;1.1;98.8
56558;BME280;43358;50.356;12.456;2022-11-15T05:47:11;95421;;;1.1;98.8
56558;BME280;43358;50.356;12.456;2022-11-15T05:48:10;95418;;;1.1;98.8
56558;BME280;43358;50.356;12.456;2022-11-15T05:50:11;95417;;;1.1;98.8
56558;BME280;43358;50.356;12.456;2022-11-15T05:51:11;95415;;;1.1;98.8
56558;BME280;43358;50.356;12.456;2022-11-15T05:52:11;95417;;;1.1;98.8
56558;BME280;43358;50.356;12.456;2022-11-15T05:53:13;95417;;;1.1;98.8
56558;BME280;43358;50.356;12.456;2022-11-15T05:54:15;95419;;;1.1;98.8
56558;BME280;43358;50.356;12.456;2022-11-15T05:55:18;95420;;;1.1;98.8
56558;BME280;43358;50.356;12.456;2022-11-15T05:56:20;95419;;;1.1;98.8
56558;BME280;43358;50.356;12.456;2022-11-15T05:57:22;95421;;;1;98.8
56558;BME280;43358;50.356;12.456;2022-11-15T05:58:24;95418;;;1;98.8
56558;BME280;43358;50.356;12.456;2022-11-15T05:59:27;95422;;;1;98.8
56558;BME280;43358;50.356;12.456;2022-11-15T06:00:29;95422;;;1;98.8
56558;BME280;43358;50.356;12.456;2022-11-15T06:01:31;95424;;;1;98.8
56558;BME280;43358;50.356;12.456;2022-11-15T06:05:04;95418;;;1;98.8
56558;BME280;43358;50.356;12.456;2022-11-15T06:05:05;95419;;;1;98.8
56558;BME280;43358;50.356;12.456;2022-11-15T06:09:04;95412;;;1;98.8
56558;BME280;43358;50.356;12.456;2022-11-15T06:09:30;95421;;;1;98.8
56558;BME280;43358;50.356;12.456;2022-11-15T06:14:20;95416;;;1;98.8
56558;BME280;43358;50.356;12.456;2022-11-15T06:18:31;95413;;;0.9;98.8
56558;BME280;43358;50.356;12.456;2022-11-15T06:19:10;95421;;;0.9;98.8
56558;BME280;43358;50.356;12.456;2022-11-15T06:20:10;95421;;;0.9;98.8
56558;BME280;43358;50.356;12.456;2022-11-15T06:24:05;95426;;;0.9;98.8
56558;BME280;43358;50.356;12.456;2022-11-15T06:25:10;95423;;;1;98.8
56558;BME280;43358;50.356;12.456;2022-11-15T06:26:10;95423;;;1;98.8
56558;BME280;43358;50.356;12.456;2022-11-15T06:28:15;95425;;;1;98.8
56558;BME280;43358;50.356;12.456;2022-11-15T06:29:17;95421;;;0.9;98.8
56558;BME280;43358;50.356;12.456;2022-11-15T06:31:21;95421;;;0.9;98.8
56558;BME280;43358;50.356;12.456;2022-11-15T06:32:23;95418;;;0.9;98.8
56558;BME280;43358;50.356;12.456;2022-11-15T06:34:36;95418;;;0.9;98.8
56558;BME280;43358;50.356;12.456;2022-11-15T06:35:32;95421;;;1;98.8
56558;BME280;43358;50.356;12.456;2022-11-15T06:38:36;95422;;;1;98.8
56558;BME280;43358;50.356;12.456;2022-11-15T06:39:38;95425;;;1;98.8
56558;BME280;43358;50.356;12.456;2022-11-15T06:41:11;95425;;;1;98.8
56558;BME280;43358;50.356;12.456;2022-11-15T06:42:10;95427;;;0.9;98.8
56558;BME280;43358;50.356;12.456;2022-11-15T06:43:10;95428;;;0.9;98.8
56558;BME280;43358;50.356;12.456;2022-11-15T06:48:10;95427;;;0.8;98.8
56558;BME280;43358;50.356;12.456;2022-11-15T06:57:07;95428;;;0.8;98.8
56558;BME280;43358;50.356;12.456;2022-11-15T06:57:10;95426;;;0.8;98.8
56558;BME280;43358;50.356;12.456;2022-11-15T06:58:10;95427;;;0.8;98.8
56558;BME280;43358;50.356;12.456;2022-11-15T06:59:10;95429;;;0.8;98.8
56558;BME280;43358;50.356;12.456;2022-11-15T07:00:59;95430;;;0.8;98.8
56558;BME280;43358;50.356;12.456;2022-11-15T07:01:36;95429;;;0.8;98.8
56558;BME280;43358;50.356;12.456;2022-11-15T07:02:56;95430;;;0.8;98.8
56558;BME280;43358;50.356;12.456;2022-11-15T07:03:41;95434;;;0.8;98.8